Tiempo atmosférico en la estación meteorológica de San Clemente, Cuenca (728 m.)



Fecha
DESCASC
Temp. máxima en grados centígrados (hora)
DESCASC
Temp. mínima en grados centígrados (hora)
DESCASC
Temp. media en grados centígrados
DESCASC
Racha de viento máxima en m/sg (hora)
DESCASC
Velocidad máxima media en intervalos de 10 minutos(hora)
DESCASC
Precipitaciones diarias en mm
DESCASC
Precipitaciones de 00:00 a 06:00 en mm
DESCASC
Precipitaciones de 06:00 a 12:00 en mm
DESCASC
Precipitaciones de 12:00 a 18:00 en mm
DESCASC
Precipitaciones de 18:00 a 24:00 en mm
DESCASC
22-11-2020 13.7 (16:50) 1.5 (05:00) 7.6 5.28 (00:20) 3.61 (00:20) 0 0 0 0 0
21-11-2020 14.3 (15:30) 1.3 (06:30) 7.8 9.72 (13:20) 5 (10:50) 0 0 0 0 0
20-11-2020 16.5 (17:00) 3.5 (08:20) 10 3.89 (07:50) 2.78 (07:10) 0 0 0 0 0
19-11-2020 19.9 (15:30) 4.9 (00:00) 12.4 4.17 (23:10) 3.33 (20:10) 0 0 0 0 0
18-11-2020 19.4 (15:30) 5.4 (00:00) 12.4 5.28 (14:40) 3.89 (17:50) 0.2 0.2 0 0 0
17-11-2020 18.3 (15:30) 6 (00:00) 12.1 5.28 (15:00) 3.33 (19:10) 0 0 0 0 0
16-11-2020 18.8 (16:00) 9.8 (00:00) 14.3 7.5 (13:30) 5 (13:50) 0.2 0 0.2 0 0
15-11-2020 18.2 (15:50) 10.8 (00:00) 14.5 10 (15:20) 7.22 (15:20) 0.2 0.2 0 0 0
14-11-2020 14.5 (16:00) 9.2 (00:00) 11.8 4.17 (20:10) 2.78 (20:20) 2.4 0 0.4 0.8 1.2
13-11-2020 17.3 (17:00) 7.6 (00:00) 12.4 6.39 (00:40) 3.61 (00:20) 0 0 0 0 0
12-11-2020 15.6 (15:00) 5.2 (00:00) 10.4 9.17 (16:30) 4.44 (15:50) 0 0 0 0 0
11-11-2020 15.9 (15:40) 6.6 (00:00) 11.2 7.22 (11:10) 3.89 (11:30) 0 0 0 0 0
10-11-2020 17.3 (15:50) 3.6 (00:00) 10.4 4.72 (02:30) 3.33 (21:10) 0 0 0 0 0
09-11-2020 16 (16:00) 6.4 (00:00) 11.2 6.67 (14:20) 3.33 (16:10) 0 0 0 0 0
08-11-2020 17.2 (16:00) 3.8 (00:00) 10.5 4.72 (10:10) 3.33 (10:00) 0 0 0 0 0
07-11-2020 15.5 (16:00) 7 (00:00) 11.3 -- (--) -- (--) 12.6 10.4 0.4 1.8 0
06-11-2020 18.5 (14:10) 12.2 (00:00) 15.3 -- (--) -- (--) 0 0 0 0 0
05-11-2020 -- (--) -- (--) -- -- (--) -- (--) -- 0 1.6 -- 0.6
04-11-2020 12 (00:50) 9.6 (00:00) 10.8 17.5 (23:20) 9.44 (23:59) 44.6 40.8 3.4 0.4 0
03-11-2020 22.4 (16:00) 6.4 (00:00) 14.4 14.44 (17:30) 9.17 (17:30) 15 0 0 0 15
02-11-2020 23.9 (16:10) 5.3 (00:00) 14.6 6.39 (15:00) 3.33 (15:50) 0 0 0 0 0
01-11-2020 23.8 (15:50) 5.4 (00:00) 14.6 7.5 (16:10) 4.44 (13:30) 0 0 0 0 0
31-10-2020 24.4 (15:20) 5.2 (00:00) 14.8 6.67 (16:30) 5 (19:50) 0 0 0 0 0
30-10-2020 23.7 (17:10) 3.9 (00:00) 13.8 5.28 (09:50) 3.33 (01:20) 0 0 0 0 0
29-10-2020 18.9 (15:40) 3.6 (00:00) 11.2 5.56 (14:40) 3.33 (14:50) 0 0 0 0 0
28-10-2020 18.2 (15:50) 5.2 (00:00) 11.7 7.78 (15:00) 4.72 (15:00) 0 0 0 0 0
27-10-2020 15 (16:00) 1.6 (00:00) 8.3 10.28 (14:00) 7.22 (14:00) 0 0 0 0 0

Gráficas

Temp. máximas Temp. mínimas Temp. medias Precipitaciones Rachas de viento máximas Velocidades máximas media en intervalos de 10 minutos

Datos horarios

Fecha y hora oficial Temperatura (ºC) Velocidad del viento (km/h) Dirección del viento Racha (km/h) Dirección de racha Precipitación (mm) Presión (hPa) Tendencia (hPa) Humedad (%)
2020-11-25 23:00:00 8.4 17 Sur 28 Sur 0 929.9 0.7 81
2020-11-25 22:00:00 8.5 17 Sur 32 Sur 0 929.7 0.5 80
2020-11-25 21:00:00 9.6 17 Sur 32 Sur 0 929.4 0.3 76
2020-11-25 20:00:00 9.8 16 Sur 28 Sur 0 929.2 -0.2 75
2020-11-25 19:00:00 10.3 12 Sur 21 Sur 0 929.2 -0.2 73
2020-11-25 18:00:00 11.7 11 Sudoeste 21 Sur 0 929.1 -0.7 66
2020-11-25 17:00:00 13.4 11 Sudoeste 25 Oeste 0 929.4 -1.1 53
2020-11-25 16:00:00 13.9 17 Oeste 24 Oeste 0 929.4 -2.2 50
2020-11-25 15:00:00 13.6 11 Sudoeste 23 Sudoeste 0 929.8 -2.7 60
2020-11-25 14:00:00 13.3 13 Oeste 21 Oeste 0 930.5 -- 59
2020-11-25 13:00:00 11.7 8 Sudoeste 19 Sudoeste 0 931.6 -- 72
2020-11-25 12:00:00 10 9 Sudoeste 21 Oeste 0 932.5 -- 76
2020-11-25 11:00:00 9.4 8 Sudoeste 16 Sudoeste 0 932.9 -- 79
2020-11-25 10:00:00 6.4 7 Sur 10 Sur 0 932.9 -- 82
2020-11-25 09:00:00 4.9 5 Sur 13 Sudoeste 0 933.2 -- 85
2020-11-25 08:00:00 3.9 5 Sudeste 10 Este 0 933.2 -- 88
2020-11-25 07:00:00 3.5 5 Sudeste 13 Este 0 933 -- 88
2020-11-25 06:00:00 2.9 8 Este 13 Este 0 933.1 -- 87
2020-11-25 05:00:00 2.4 8 Este 13 Este 0 933.4 -- 88
2020-11-25 04:00:00 1.3 8 Este 13 Este 0 933.8 -- 88
2020-11-25 03:00:00 0.8 10 Este 13 Este 0 934 -- 88
2020-11-25 02:00:00 1.3 9 Este 12 Este 0 934.5 -- 85
2020-11-25 01:00:00 0.9 9 Este 12 Este 0 935.1 -- 85
2020-11-25 00:00:00 1.8 6 Este 12 Este 0 935.4 -- 82
2020-11-24 23:00:00 2.3 5 Este 10 Este 0 935.8 -- 81
2020-11-24 22:00:00 3 8 Este 10 Este 0 935.9 -- 79
2020-11-24 21:00:00 3.7 4 Sudeste 7 Sudoeste 0 936 -- 79
2020-11-24 20:00:00 5.7 4 Sudoeste 9 Sudoeste 0 935.9 -- 72
2020-11-24 19:00:00 7.7 4 Este 10 Nordeste 0 935.9 -- 62
2020-11-24 18:00:00 10.6 6 Nordeste 12 Nordeste 0 935.8 -- 50
2020-11-24 17:00:00 13.6 9 Nordeste 18 Norte 0 935.9 -- 39
2020-11-24 16:00:00 13.5 8 Norte 15 Norte 0 936.1 -- 46
2020-11-24 15:00:00 12.4 11 Norte 17 Norte 0 936.6 -- 49
2020-11-24 14:00:00 12 8 Norte 13 Norte 0 937.5 -- 49
2020-11-24 13:00:00 9.2 3 Sur 7 Sudeste 0 938.3 -- 76
2020-11-24 12:00:00 5.8 3 Sur 9 Sudoeste 0 939.3 -- 98
2020-11-24 11:00:00 4.4 4 Sudeste 10 Sur 0 939.9 -- 98
2020-11-24 10:00:00 3.5 8 Sur 15 Sur 0 939.9 -- 98
2020-11-24 09:00:00 1.9 7 Sudeste 10 Sudeste 0 939.7 -- 98
2020-11-24 08:00:00 0.8 5 Sudeste 11 Sudeste 0 939.6 -- 97
2020-11-24 07:00:00 -0.3 6 Sudeste 11 Este 0 939.3 -- 95
2020-11-24 06:00:00 0.2 7 Sudeste 15 Este 0 939.2 -- 95
2020-11-24 05:00:00 0.4 7 Este 15 Este 0 939.5 -- 94
2020-11-24 04:00:00 0.6 6 Este 14 Este 0 939.8 -- 92
2020-11-24 03:00:00 1.2 9 Este 16 Este 0 940.2 -- 90
2020-11-24 02:00:00 1.9 11 Este 16 Este 0 940.3 -- 89
2020-11-24 01:00:00 2.7 9 Sudeste 13 Sudeste 0 940.8 -- 85
2020-11-24 00:00:00 2.8 7 Este 14 Sudeste 0 941.2 -- 84
2020-11-23 23:00:00 3.6 11 Este 14 Este 0 941.5 -- 83
2020-11-23 22:00:00 4.3 7 Sudeste 11 Sudeste 0 941.4 -- 81
2020-11-23 21:00:00 5 8 Sudeste 10 Este 0 941.6 -- 75
2020-11-23 20:00:00 6.6 8 Este 11 Este 0 941.6 -- 71
2020-11-23 19:00:00 8.6 5 Sudeste 7 Sudeste 0 941.4 -- 63
2020-11-23 18:00:00 11.9 5 Sur 17 Sur 0 941 -- 51
2020-11-23 17:00:00 14.3 10 Sur 19 Sudoeste 0 940.6 -- 41
2020-11-23 16:00:00 15.1 9 Sudoeste 18 Sudoeste 0 940.6 -- 34
2020-11-23 15:00:00 14.9 10 Sudoeste 20 Sudoeste 0 940.9 -- 31
2020-11-23 14:00:00 14.6 12 Sur 23 Sur 0 941.3 -- 38
2020-11-23 13:00:00 13.7 9 Sur 18 Sur 0 942.1 -- 45
2020-11-23 12:00:00 11.1 8 Sur 15 Sur 0 943 -- 63
2020-11-23 11:00:00 8.1 8 Sudoeste 14 Sudeste 0 943.5 -- 73
2020-11-23 10:00:00 5.3 9 Sudeste 13 Sudeste 0 943.3 -- 82
2020-11-23 09:00:00 1.6 9 Sudeste 14 Sudeste 0 943 -- 92
2020-11-23 08:00:00 0.1 10 Sudeste 14 Este 0 942.7 -- 92
2020-11-23 07:00:00 0.1 9 Este 13 Este 0 942.4 -- 93
2020-11-23 06:00:00 0.2 9 Este 15 Este 0 942.3 -- 93
2020-11-23 05:00:00 0.2 6 Este 12 Este 0 942.2 -- 93
2020-11-23 04:00:00 0.6 8 Este 13 Este 0 942.2 -- 93
2020-11-23 03:00:00 0.8 8 Este 13 Este 0 942.2 -- 91
2020-11-23 02:00:00 1.2 8 Este 14 Este 0 942.5 -- 89
2020-11-23 01:00:00 1.8 10 Este 15 Este 0 942.7 -- 87
2020-11-23 00:00:00 2.5 10 Este 13 Este 0 942.6 -- 88
2020-11-22 23:00:00 2.7 9 Este 13 Este 0 942.7 -- 86
2020-11-22 22:00:00 3.1 8 Este 10 Este 0 942.6 -- 84
2020-11-22 21:00:00 4.2 9 Este 11 Este 0 942.3 -- 79
2020-11-22 20:00:00 5.3 5 Este 6 Este 0 942.2 -- 77
2020-11-22 19:00:00 7.7 0 Calma 8 Norte 0 941.8 -- 66
2020-11-22 18:00:00 10.7 7 Noroeste 8 Noroeste 0 941.5 -- 51
2020-11-22 17:00:00 13.6 5 Norte 7 Noroeste 0 941.6 -- 43
2020-11-22 16:00:00 12.8 3 Noroeste 7 Noroeste 0 941.3 -- 47
2020-11-22 15:00:00 11.2 3 Oeste 10 Oeste 0 941.6 -- 55
2020-11-22 14:00:00 9.8 5 Sudoeste 14 Sur 0 942.2 -- 73
2020-11-22 13:00:00 7.4 5 Sudoeste 13 Sudoeste 0 943.2 -- 87
2020-11-22 12:00:00 5.7 8 Sudoeste 16 Sudoeste 0 943.9 -- 98
2020-11-22 11:00:00 4.8 4 Sudeste 12 Sur 0 944.3 -- 98
2020-11-22 10:00:00 4.4 7 Sur 15 Sur 0 943.9 -- 98
2020-11-22 09:00:00 4.1 7 Sur 18 Sur 0 943.6 -- 98
2020-11-22 08:00:00 4.1 12 Sur 19 Sur 0 943.4 -- 98
2020-11-22 07:00:00 4.5 9 Sur 14 Sudoeste 0 943.2 -- 97
2020-11-22 06:00:00 3 5 Sudeste 9 Sudeste 0 943.2 -- 96
2020-11-22 05:00:00 1.6 5 Sur 12 Este 0 942.9 -- 95
2020-11-22 04:00:00 2 9 Este 14 Este 0 942.9 -- 94
2020-11-22 03:00:00 3.1 6 Sudeste 15 Sudeste 0 942.9 -- 93
2020-11-22 02:00:00 4.3 11 Sudeste 16 Sudeste 0 943.1 -- 93
2020-11-22 01:00:00 5.3 11 Sudeste 19 Sudeste 0 943.4 -- 91
2020-11-22 00:00:00 5.6 13 Sudeste 19 Sur 0 943.6 -- 90
2020-11-21 23:00:00 5.8 12 Sudeste 16 Sur 0 943.5 -- 88
2020-11-21 22:00:00 6.2 12 Sur 18 Sur 0 943.4 -- 85
2020-11-21 21:00:00 6.7 11 Sudeste 15 Sudeste 0 943.3 -- 82
2020-11-21 20:00:00 8.1 8 Sur 13 Sur 0 943.1 -- 74
2020-11-21 19:00:00 9.5 4 Sur 15 Sudeste 0 942.6 -- 69
2020-11-21 18:00:00 11.3 9 Sur 28 Sur 0 942.1 -- 61
2020-11-21 17:00:00 13.6 14 Sur 28 Sur 0 941.8 -- 53
2020-11-21 16:00:00 14.3 15 Sur 27 Sur 0 941.7 -- 55
2020-11-21 15:00:00 14.1 14 Sur 26 Sur 0 941.9 -- 57
2020-11-21 14:00:00 13.3 18 Sur 35 Sudoeste 0 942 -- 58
2020-11-21 13:00:00 13 17 Sur 30 Sudoeste 0 942.5 -- 58
2020-11-21 12:00:00 12.1 14 Sur 30 Sur 0 943 -- 64
2020-11-21 11:00:00 10.8 12 Sur 25 Sur 0 943.1 -- 70
2020-11-21 10:00:00 9 13 Sudeste 23 Sudeste 0 942.8 -- 69
2020-11-21 09:00:00 5.2 9 Sudeste 21 Sudeste 0 942.6 -- 76
2020-11-21 08:00:00 3.2 13 Sudeste 19 Este 0 942 -- 69
2020-11-21 07:00:00 2.2 11 Sudeste 17 Sudeste 0 941.8 -- 76
2020-11-21 06:00:00 1.7 5 Sudeste 11 Sudeste 0 941.8 -- 81
2020-11-21 05:00:00 2.3 6 Sur 16 Sudeste 0 941.6 -- 81
2020-11-21 04:00:00 3 7 Sudeste 14 Sudeste 0 941.8 -- 78
2020-11-21 03:00:00 3.3 8 Este 12 Este 0 941.7 -- 78
2020-11-21 02:00:00 3.6 6 Sudeste 14 Este 0 942.2 -- 77
2020-11-21 01:00:00 4.6 10 Este 15 Este 0 942.4 -- 73
2020-11-21 00:00:00 5.9 9 Sudeste 14 Sudeste 0 942.3 -- 68
2020-11-20 23:00:00 5.2 5 Sudeste 10 Sudeste 0 942.1 -- 79
2020-11-20 22:00:00 5.8 5 Sudeste 7 Sudeste 0 942.1 -- 79
2020-11-20 21:00:00 7.2 2 Sudeste 7 Sur 0 941.6 -- 74
2020-11-20 20:00:00 8.2 2 Sudeste 6 Este 0 941.5 -- 70
2020-11-20 19:00:00 10.5 3 Este 9 Noroeste 0 941.3 -- 59
2020-11-20 18:00:00 13.5 7 Noroeste 11 Noroeste 0 941 -- 43
2020-11-20 17:00:00 16.4 5 Noroeste 11 Noroeste 0 941.5 -- 31
2020-11-20 16:00:00 16 5 Noroeste 13 Noroeste 0 941.5 -- 30
2020-11-20 15:00:00 15.4 3 Noroeste 9 Sudoeste 0 942.1 -- 30
2020-11-20 14:00:00 15.2 3 Sur 10 Nordeste 0 942.8 -- 37
2020-11-20 13:00:00 14.1 5 Sudeste 11 Este 0 943.6 -- 40
2020-11-20 12:00:00 13 4 Este 14 Este 0 944.3 -- 46
2020-11-20 11:00:00 11.4 6 Este 13 Sudeste 0 944.4 -- 54
2020-11-20 10:00:00 9.2 6 Sudeste 13 Este 0 944.1 -- 69
2020-11-20 09:00:00 5.4 4 Nordeste 9 Este 0 943.9 -- 89
2020-11-20 08:00:00 3.9 6 Este 14 Este 0 944 -- 89
2020-11-20 07:00:00 3.9 10 Este 12 Este 0 943.7 -- 95
2020-11-20 06:00:00 4.1 3 Sudeste 8 Este 0 943.8 -- 93
2020-11-20 05:00:00 5.3 6 Este 9 Este 0 944.2 -- 92
2020-11-20 04:00:00 6 3 Noroeste 11 Nordeste 0 944.4 -- 92
2020-11-20 03:00:00 6.7 4 Norte 10 Este 0 944.8 -- 92
2020-11-20 02:00:00 7.5 5 Este 13 Este 0 945.4 -- 90
2020-11-20 01:00:00 8.8 3 Este 12 Este 0 945.8 -- 86
2020-11-20 00:00:00 9.7 9 Este 15 Este 0 946 -- 87
2020-11-19 23:00:00 10.1 6 Este 12 Este 0 946.3 -- 83
2020-11-19 22:00:00 10.6 7 Sudeste 12 Sudeste 0 945.9 -- 82
2020-11-19 21:00:00 11.9 6 Nordeste 14 Norte 0 945.6 -- 72
2020-11-19 20:00:00 12.4 4 Nordeste 10 Norte 0 945.6 -- 74
2020-11-19 19:00:00 14.6 6 Noroeste 10 Oeste 0 945.3 -- 66
2020-11-19 18:00:00 16.7 7 Noroeste 8 Norte 0 945 -- 54
2020-11-19 17:00:00 19.6 5 Norte 11 Norte 0 944.7 -- 45
2020-11-19 16:00:00 19.9 6 Norte 11 Norte 0 944.8 -- 43
2020-11-19 15:00:00 19.2 7 Norte 14 Norte 0 945.3 -- 48
2020-11-19 14:00:00 18.7 2 Norte 12 Noroeste 0 945.6 -- 49
2020-11-19 13:00:00 18 3 Norte 11 Norte 0 946 -- 53
2020-11-19 12:00:00 15.8 4 Noroeste 11 Norte 0 946.6 -- 66
2020-11-19 11:00:00 13.5 6 Este 12 Este 0 946.5 -- 74
2020-11-19 10:00:00 10.3 3 Sudoeste 10 Nordeste 0 946.1 -- 80
2020-11-19 09:00:00 7.3 2 Sudeste 10 Este 0 945.5 -- 90
2020-11-19 08:00:00 5 4 Este 10 Este 0 944.6 -- 94
2020-11-19 07:00:00 5.4 2 Sudeste 8 Norte 0 944.2 -- 94
2020-11-19 06:00:00 5.9 5 Sudeste 7 Sudeste 0 943.7 -- 93
2020-11-19 05:00:00 6.3 7 Este 10 Este 0 943.6 -- 93
2020-11-19 04:00:00 6.6 6 Este 12 Este 0 943.7 -- 92
2020-11-19 03:00:00 6.6 5 Este 10 Este 0 943.8 -- 92
2020-11-19 02:00:00 7.1 5 Este 8 Sudeste 0 943.6 -- 93
2020-11-19 01:00:00 7.7 0 Calma 10 Norte 0 943.8 -- 93
2020-11-19 00:00:00 8.5 7 Este 12 Este 0 943.7 -- 93
2020-11-18 23:00:00 9 4 Nordeste 8 Este 0 943.7 -- 92
2020-11-18 22:00:00 10.2 3 Este 7 Nordeste 0 943.6 -- 89
2020-11-18 21:00:00 10.7 6 Nordeste 12 Norte 0 943.1 -- 89
2020-11-18 20:00:00 12.1 7 Noroeste 9 Noroeste 0 942.8 -- 84
2020-11-18 19:00:00 13.7 4 Sudoeste 13 Norte 0 942.8 -- 80
2020-11-18 18:00:00 15.6 13 Norte 15 Norte 0 942.2 -- 74
2020-11-18 17:00:00 18.7 12 Norte 16 Norte 0 942.1 -- 62
2020-11-18 16:00:00 19.2 10 Norte 16 Norte 0 942.1 -- 65
2020-11-18 15:00:00 18.7 9 Norte 19 Norte 0 942.1 -- 58
2020-11-18 14:00:00 17.8 10 Norte 18 Norte 0 942.5 -- 63
2020-11-18 13:00:00 16.5 9 Norte 14 Norte 0 943 -- 73
2020-11-18 12:00:00 15.1 7 Noroeste 12 Norte 0 943.7 -- 75
2020-11-18 11:00:00 12.6 3 Nordeste 10 Sudeste 0 943.9 -- 80
2020-11-18 10:00:00 9.8 6 Este 10 Este 0 943.8 -- 88
2020-11-18 09:00:00 7.2 6 Este 13 Este 0 943.7 -- 96
2020-11-18 08:00:00 5.7 9 Este 14 Este 0 943.4 -- 97
2020-11-18 07:00:00 5.7 8 Este 14 Este 0 943.2 -- 97
2020-11-18 06:00:00 5.6 8 Este 14 Este 0 942.9 -- 97
2020-11-18 05:00:00 6.1 7 Este 12 Este 0 942.9 -- 97
2020-11-18 04:00:00 6.1 9 Este 13 Este 0 942.9 -- 96
2020-11-18 03:00:00 6.6 7 Este 10 Este 0 942.9 -- 96
2020-11-18 02:00:00 7.3 0 Calma 10 Este 0.2 943 -- 95
2020-11-18 01:00:00 8.7 9 Este 13 Este 0 943.2 -- 96
2020-11-18 00:00:00 8.2 7 Este 10 Este 0 943.5 -- 95
2020-11-17 23:00:00 8.7 7 Este 12 Este 0 943.5 -- 93
2020-11-17 22:00:00 9.5 7 Este 9 Este 0 943.2 -- 92
2020-11-17 21:00:00 10.5 6 Este 10 Este 0 943 -- 89
2020-11-17 20:00:00 12.2 8 Nordeste 14 Nordeste 0 942.8 -- 84
2020-11-17 19:00:00 13.4 10 Nordeste 12 Nordeste 0 942.3 -- 82
2020-11-17 18:00:00 15.3 9 Norte 12 Norte 0 942.1 -- 76
2020-11-17 17:00:00 17.8 9 Norte 16 Norte 0 941.9 -- 65
2020-11-17 16:00:00 18.1 10 Norte 18 Norte 0 941.7 -- 65
2020-11-17 15:00:00 17.7 11 Norte 19 Norte 0 941.8 -- 67
2020-11-17 14:00:00 17.2 8 Norte 15 Norte 0 942.2 -- 70
2020-11-17 13:00:00 16.7 6 Noroeste 12 Noroeste 0 942.9 -- 70
2020-11-17 12:00:00 15.6 3 Oeste 7 Sudeste 0 943.4 -- 73
2020-11-17 11:00:00 13.1 3 Este 10 Este 0 943.5 -- 80
2020-11-17 10:00:00 10.6 5 Sudeste 9 Este 0 943.3 -- 85
2020-11-17 09:00:00 7.8 4 Este 9 Este 0 942.7 -- 95
2020-11-17 08:00:00 6.1 5 Este 13 Este 0 942.3 -- 96
2020-11-17 07:00:00 6.5 6 Este 12 Este 0 941.8 -- 96
2020-11-17 06:00:00 7.1 8 Este 15 Este 0 941.7 -- 96
2020-11-17 05:00:00 7.6 7 Este 13 Sudeste 0 941.3 -- 96
2020-11-17 04:00:00 8.1 9 Este 13 Este 0 941.4 -- 95
2020-11-17 03:00:00 8.8 9 Este 12 Este 0 941.7 -- 94
2020-11-17 02:00:00 9 5 Sudeste 11 Nordeste 0 942 -- 95
2020-11-17 01:00:00 9 8 Nordeste 11 Este 0 941.8 -- 93
2020-11-17 00:00:00 9.8 5 Este 9 Nordeste 0 941.8 -- 90
2020-11-16 23:00:00 10.6 4 Este 10 Este 0 941.7 -- 91
2020-11-16 22:00:00 11.1 2 Sudeste 11 Sudeste 0 941.6 -- 88
2020-11-16 21:00:00 12.1 6 Sur 17 Este 0 941 -- 86
2020-11-16 20:00:00 12.7 10 Este 13 Este 0 940.9 -- 84
2020-11-16 19:00:00 14.2 11 Nordeste 14 Nordeste 0 940.5 -- 78
2020-11-16 18:00:00 15.4 10 Nordeste 14 Norte 0 940 -- 74
2020-11-16 17:00:00 17.3 9 Norte 19 Nordeste 0 939.4 -- 69
2020-11-16 16:00:00 18.5 14 Norte 25 Norte 0 939 -- 64
2020-11-16 15:00:00 17.9 14 Norte 23 Norte 0 939.3 -- 69
2020-11-16 14:00:00 17.6 17 Norte 27 Norte 0 939.5 -- 71
2020-11-16 13:00:00 17.3 15 Norte 23 Norte 0 939.8 -- 72
2020-11-16 12:00:00 16 12 Norte 19 Norte 0 940.2 -- 82
2020-11-16 11:00:00 14 11 Norte 17 Norte 0.2 940.3 -- 91
2020-11-16 10:00:00 12.2 13 Norte 20 Norte 0 939.7 -- 95
2020-11-16 09:00:00 11.4 12 Norte 19 Norte 0 939.3 -- 96
2020-11-16 08:00:00 11.3 15 Norte 23 Nordeste 0 938.2 -- 95
2020-11-16 07:00:00 11.7 15 Norte 20 Norte 0 938 -- 94
2020-11-16 06:00:00 11.6 12 Norte 18 Norte 0 938 -- 94
2020-11-16 05:00:00 10.7 8 Norte 11 Nordeste 0 937.8 -- 95
2020-11-16 04:00:00 11 8 Nordeste 12 Norte 0 937.9 -- 93
2020-11-16 03:00:00 11.6 7 Nordeste 13 Norte 0 938.3 -- 95
2020-11-16 02:00:00 11.4 5 Noroeste 11 Noroeste 0 938.3 -- 96
2020-11-16 01:00:00 11 6 Este 8 Este 0 938.8 -- 95
2020-11-16 00:00:00 11.7 5 Este 8 Este 0 938.6 -- 95
2020-11-15 23:00:00 12.4 3 Sudeste 9 Sudoeste 0 938.5 -- 92
2020-11-15 22:00:00 13.6 5 Oeste 12 Oeste 0 938.8 -- 92
2020-11-15 21:00:00 14 2 Oeste 8 Noroeste 0 938.9 -- 91
2020-11-15 20:00:00 14.4 4 Este 15 Nordeste 0 938.5 -- 88
2020-11-15 19:00:00 15.3 9 Nordeste 14 Norte 0 938.6 -- 87
2020-11-15 18:00:00 15.8 13 Norte 18 Norte 0 938 -- 83
2020-11-15 17:00:00 16.9 14 Norte 33 Norte 0 937.8 -- 80
2020-11-15 16:00:00 17.4 22 Norte 36 Norte 0 937.7 -- 76
2020-11-15 15:00:00 17.8 20 Norte 32 Norte 0 937.6 -- 75
2020-11-15 14:00:00 17.5 21 Norte 30 Norte 0 937.8 -- 76
2020-11-15 13:00:00 16.6 17 Norte 25 Noroeste 0 938.3 -- 80
2020-11-15 12:00:00 13.8 14 Noroeste 22 Noroeste 0 939.1 -- 89
2020-11-15 11:00:00 13.1 16 Noroeste 24 Norte 0 939.2 -- 92
2020-11-15 10:00:00 12.1 15 Norte 21 Noroeste 0 939.2 -- 98
2020-11-15 09:00:00 11.3 6 Norte 12 Norte 0 938.9 -- 98
2020-11-15 08:00:00 10.9 6 Norte 18 Nordeste 0 938.3 -- 98
2020-11-15 07:00:00 10.9 13 Nordeste 21 Norte 0 937.9 -- 98
2020-11-15 06:00:00 11.5 14 Norte 26 Norte 0 937.5 -- 97
2020-11-15 05:00:00 11.6 15 Norte 27 Norte 0 937.4 -- 97
2020-11-15 04:00:00 11.5 5 Norte 20 Norte 0 937.5 -- 96
2020-11-15 03:00:00 12 17 Norte 28 Norte 0.2 937.8 -- 96
2020-11-15 02:00:00 12.5 15 Norte 24 Norte 0 937.8 -- 96
2020-11-15 01:00:00 12.6 10 Norte 16 Noroeste 0 937.9 -- 97
2020-11-15 00:00:00 12.7 4 Noroeste 8 Noroeste 0 938 -- 97
2020-11-14 23:00:00 12.7 5 Noroeste 9 Noroeste 0 937.9 -- 97
2020-11-14 22:00:00 12.8 7 Norte 12 Norte 0.2 938.1 -- 97
2020-11-14 21:00:00 12.8 8 Norte 15 Norte 0.2 937.8 -- 97
2020-11-14 20:00:00 13 5 Norte 8 Noroeste 0.4 937.6 -- 96
2020-11-14 19:00:00 13.2 8 Norte 14 Oeste 0.4 937.1 -- 95
2020-11-14 18:00:00 13.5 5 Sudoeste 9 Sudoeste 0 936.6 -- 93
2020-11-14 17:00:00 13.8 6 Sudoeste 11 Sudoeste 0.4 936.5 -- 90
2020-11-14 16:00:00 14.4 8 Sudoeste 12 Sudoeste 0 936.4 -- 86
2020-11-14 15:00:00 14.2 6 Sudoeste 12 Sudoeste 0 936.5 -- 87
2020-11-14 14:00:00 13.4 5 Sudoeste 12 Sudoeste 0 936.8 -- 91
2020-11-14 13:00:00 12.9 6 Sudoeste 13 Sudoeste 0.4 937.4 -- 92
2020-11-14 12:00:00 12.6 7 Sudoeste 12 Sudoeste 0 938 -- 90
2020-11-14 11:00:00 12.2 7 Sur 14 Sudoeste 0.2 937.9 -- 88
2020-11-14 10:00:00 11.3 6 Sudoeste 10 Sudoeste 0.2 937.9 -- 95
2020-11-14 09:00:00 10.5 4 Sur 8 Sudeste 0 937.6 -- 96
2020-11-14 08:00:00 9.9 6 Este 8 Sudeste 0 936.9 -- 95
2020-11-14 07:00:00 9.8 6 Este 8 Este 0 936.6 -- 95
2020-11-14 06:00:00 9.8 3 Este 7 Sudeste 0 936.5 -- 95
2020-11-14 05:00:00 9.6 5 Sudeste 10 Sudeste 0 936.4 -- 95
2020-11-14 04:00:00 9.5 6 Sudeste 8 Sudeste 0 936.5 -- 94
2020-11-14 03:00:00 9.6 6 Sudeste 8 Sudeste 0 937 -- 93
2020-11-14 02:00:00 9.5 6 Sudeste 11 Este 0 937.1 -- 90
2020-11-14 01:00:00 9.6 6 Este 13 Este 0 937.4 -- 88
2020-11-14 00:00:00 9.2 6 Este 12 Este 0 937.9 -- 88
2020-11-13 23:00:00 8.8 6 Este 8 Este 0 937.7 -- 89
2020-11-13 22:00:00 9.6 6 Este 11 Este 0 937.6 -- 87
2020-11-13 21:00:00 10.5 8 Este 10 Este 0 937.3 -- 85
2020-11-13 20:00:00 11.1 6 Sudeste 12 Sur 0 937 -- 84
2020-11-13 19:00:00 12.7 3 Sudeste 4 Este 0 936.5 -- 76
2020-11-13 18:00:00 14.4 3 Sudeste 5 Norte 0 936.1 -- 66
2020-11-13 17:00:00 17 5 Nordeste 10 Noroeste 0 935.9 -- 54
2020-11-13 16:00:00 16.9 4 Norte 14 Norte 0 936 -- 52
2020-11-13 15:00:00 16.6 9 Norte 14 Norte 0 936.2 -- 53
2020-11-13 14:00:00 16.4 5 Oeste 12 Sudoeste 0 936.6 -- 60
2020-11-13 13:00:00 15.6 5 Sudoeste 18 Sudoeste 0 937.1 -- 64
2020-11-13 12:00:00 14.7 10 Sudoeste 18 Sudoeste 0 937.6 -- 73
2020-11-13 11:00:00 12.8 11 Sudoeste 21 Sudoeste 0 937.5 -- 82
2020-11-13 10:00:00 11.2 3 Sur 8 Sudoeste 0 937.7 -- 85
2020-11-13 09:00:00 8.2 2 Sudeste 8 Este 0 937.2 -- 94
2020-11-13 08:00:00 7.7 7 Este 9 Este 0 936.7 -- 94
2020-11-13 07:00:00 7.9 8 Sudeste 10 Sudeste 0 936.3 -- 94
2020-11-13 06:00:00 7.9 8 Sudeste 13 Sudeste 0 936.3 -- 93
2020-11-13 05:00:00 8.3 8 Sudeste 14 Sur 0 936.1 -- 90
2020-11-13 04:00:00 8.7 10 Sur 18 Sur 0 936.2 -- 86
2020-11-13 03:00:00 9.1 13 Sur 21 Sur 0 936.5 -- 81
2020-11-13 02:00:00 8.8 10 Sur 16 Sudoeste 0 936.8 -- 86
2020-11-13 01:00:00 9.8 10 Sur 23 Sur 0 937 -- 83
2020-11-13 00:00:00 9.7 10 Sur 22 Sur 0 936.9 -- 85
2020-11-12 23:00:00 9.9 9 Sur 25 Sur 0 937 -- 84
2020-11-12 22:00:00 10.1 12 Sur 23 Sur 0 937 -- 83
2020-11-12 21:00:00 10.1 14 Sur 20 Sur 0 937 -- 82
2020-11-12 20:00:00 10.6 8 Sur 13 Sur 0 936.9 -- 81
2020-11-12 19:00:00 11.1 6 Sudeste 18 Sur 0 936.6 -- 77
2020-11-12 18:00:00 12.9 12 Sur 25 Sudoeste 0 936.1 -- 72
2020-11-12 17:00:00 15.1 15 Sudoeste 33 Sur 0 936.1 -- 58
2020-11-12 16:00:00 15.4 15 Sur 26 Sur 0 936.2 -- 56
2020-11-12 15:00:00 15.5 12 Sur 24 Sur 0 936.5 -- 50
2020-11-12 14:00:00 14.4 11 Sudoeste 22 Sur 0 937.4 -- 58
2020-11-12 13:00:00 14.6 11 Sur 21 Sur 0 938 -- 63
2020-11-12 12:00:00 12.4 6 Sur 10 Sur 0 938.8 -- 82
2020-11-12 11:00:00 10.4 5 Sur 10 Sur 0 939.2 -- 87
2020-11-12 10:00:00 8.1 4 Sudeste 9 Sudeste 0 939.3 -- 93
2020-11-12 09:00:00 6.2 3 Sudeste 10 Sudeste 0 939.1 -- 96
2020-11-12 08:00:00 5.3 5 Sudeste 14 Sudeste 0 938.4 -- 96
2020-11-12 07:00:00 5.5 6 Sudeste 10 Sudeste 0 938.5 -- 96
2020-11-12 06:00:00 5.4 6 Sudeste 14 Este 0 938.3 -- 95
2020-11-12 05:00:00 6 9 Este 18 Este 0 938.7 -- 95
2020-11-12 04:00:00 6 12 Este 17 Este 0 939 -- 95
2020-11-12 03:00:00 6 10 Este 17 Este 0 939.4 -- 94
2020-11-12 02:00:00 6.4 9 Sudeste 17 Este 0 939.6 -- 93
2020-11-12 01:00:00 7.2 12 Este 15 Este 0 940.2 -- 92
2020-11-12 00:00:00 7.8 9 Este 15 Este 0 939.9 -- 89
2020-11-11 23:00:00 8.6 8 Este 9 Este 0 939.9 -- 87
2020-11-11 22:00:00 8.6 5 Sudeste 8 Sur 0 939.8 -- 89
2020-11-11 21:00:00 9.3 5 Sudeste 9 Sur 0 939.7 -- 88
2020-11-11 20:00:00 9.5 5 Sudeste 8 Sudeste 0 939.5 -- 86
2020-11-11 19:00:00 11.3 6 Este 9 Sudeste 0 939.8 -- 82
2020-11-11 18:00:00 13.5 3 Sur 8 Sudoeste 0 939 -- 67
2020-11-11 17:00:00 15.5 5 Sudoeste 15 Sur 0 938.9 -- 59
2020-11-11 16:00:00 15.8 9 Sudoeste 17 Sudoeste 0 938.6 -- 61
2020-11-11 15:00:00 15.3 8 Sudoeste 16 Sudoeste 0 938.9 -- 66
2020-11-11 14:00:00 14.3 8 Sudoeste 17 Sur 0 939.6 -- 72
2020-11-11 13:00:00 12.6 11 Sudoeste 23 Sur 0 940.3 -- 81
2020-11-11 12:00:00 11.3 12 Sudoeste 26 Sur 0 941.2 -- 86
2020-11-11 11:00:00 9.8 13 Sudoeste 23 Sudoeste 0 941.6 -- 95
2020-11-11 10:00:00 7.9 5 Sur 14 Sudoeste 0 941.8 -- 97
2020-11-11 09:00:00 7.8 2 Oeste 8 Sudeste 0 941.5 -- 94
2020-11-11 08:00:00 6.9 4 Sudeste 12 Sudeste 0 941 -- 96
2020-11-11 07:00:00 8 7 Sudeste 14 Sudeste 0 941.1 -- 97
2020-11-11 06:00:00 8.7 9 Sur 19 Sur 0 941.4 -- 97
2020-11-11 05:00:00 8.5 8 Sur 23 Sudoeste 0 941.6 -- 97
2020-11-11 04:00:00 8.2 8 Sur 14 Sudoeste 0 941.9 -- 97
2020-11-11 03:00:00 7.4 6 Sudeste 13 Sur 0 942.2 -- 94
2020-11-11 02:00:00 6.6 8 Sudeste 12 Sudeste 0 942.2 -- 91
2020-11-11 01:00:00 7 7 Sudeste 12 Sudeste 0 942.5 -- 90
2020-11-11 00:00:00 7.8 8 Sudeste 15 Este 0 942.4 -- 87
2020-11-10 23:00:00 8 12 Este 16 Este 0 942.3 -- 85
2020-11-10 22:00:00 8.7 11 Este 15 Este 0 942 -- 83
2020-11-10 21:00:00 9.6 12 Este 14 Este 0 941.8 -- 81
2020-11-10 20:00:00 11.3 7 Sudeste 13 Este 0 941.8 -- 74
2020-11-10 19:00:00 12.4 5 Nordeste 13 Este 0 941.6 -- 71
2020-11-10 18:00:00 14.8 6 Norte 7 Norte 0 941.3 -- 59
2020-11-10 17:00:00 16.4 7 Este 13 Este 0 941.2 -- 48
2020-11-10 16:00:00 16.7 6 Este 15 Este 0 940.9 -- 45
2020-11-10 15:00:00 16.5 6 Este 14 Este 0 941.1 -- 53
2020-11-10 14:00:00 16.4 3 Noroeste 10 Noroeste 0 941.4 -- 57
2020-11-10 13:00:00 15.4 3 Noroeste 8 Oeste 0 942 -- 57
2020-11-10 12:00:00 13.6 2 Sudoeste 10 Sudeste 0 942.5 -- 66
2020-11-10 11:00:00 10.7 6 Sudeste 13 Este 0 942.8 -- 78
2020-11-10 10:00:00 7.1 3 Este 5 Sudeste 0 942.6 -- 97
2020-11-10 09:00:00 4.4 4 Norte 7 Noroeste 0 942.1 -- 97
2020-11-10 08:00:00 3.6 5 Norte 8 Noroeste 0 941.5 -- 96
2020-11-10 07:00:00 4.1 4 Nordeste 9 Norte 0 941.1 -- 97
2020-11-10 06:00:00 4.3 3 Este 7 Este 0 940.6 -- 96
2020-11-10 05:00:00 4.9 4 Nordeste 10 Este 0 940.5 -- 96
2020-11-10 04:00:00 6.2 9 Este 15 Este 0 940.4 -- 96
2020-11-10 03:00:00 6.4 10 Este 17 Este 0 940.5 -- 96
2020-11-10 02:00:00 6.2 6 Este 11 Este 0 940.4 -- 95
2020-11-10 01:00:00 6.9 8 Este 10 Este 0 940.5 -- 94
2020-11-10 00:00:00 7.3 3 Sudeste 13 Este 0 940.6 -- 94
2020-11-09 23:00:00 7.8 9 Este 14 Este 0 940.6 -- 94
2020-11-09 22:00:00 8.5 5 Este 10 Este 0 940.4 -- 92
2020-11-09 21:00:00 9.3 3 Este 8 Este 0 939.9 -- 91
2020-11-09 20:00:00 10.4 2 Sur 9 Nordeste 0 939.8 -- 89
2020-11-09 19:00:00 11.9 6 Norte 8 Norte 0 939.3 -- 84
2020-11-09 18:00:00 13.4 8 Nordeste 11 Norte 0 938.8 -- 79
2020-11-09 17:00:00 14.6 8 Nordeste 17 Norte 0 938.5 -- 71
2020-11-09 16:00:00 15.6 10 Norte 19 Norte 0 938.3 -- 67
2020-11-09 15:00:00 14.6 11 Norte 24 Norte 0 938.4 -- 72
2020-11-09 14:00:00 13.8 10 Noroeste 17 Noroeste 0 938.4 -- 80
2020-11-09 13:00:00 13.6 9 Norte 15 Noroeste 0 939 -- 78
2020-11-09 12:00:00 11.9 3 Sudeste 10 Sur 0 939.5 -- 85
2020-11-09 11:00:00 10.4 6 Norte 14 Norte 0 939.8 -- 89
2020-11-09 10:00:00 9.9 3 Sudeste 7 Sudeste 0 939.3 -- 90
2020-11-09 09:00:00 8.6 4 Sudeste 15 Este 0 938.9 -- 94
2020-11-09 08:00:00 7.5 5 Sudeste 12 Este 0 938.1 -- 95
2020-11-09 07:00:00 7.3 8 Este 15 Este 0 937.8 -- 96
2020-11-09 06:00:00 6.5 7 Este 10 Este 0 937.5 -- 95
2020-11-09 05:00:00 6.5 5 Sudeste 12 Este 0 937.5 -- 95
2020-11-09 04:00:00 7 8 Este 13 Este 0 937.4 -- 94
2020-11-09 03:00:00 7.2 9 Este 14 Este 0 937.5 -- 94
2020-11-09 02:00:00 7.2 5 Este 12 Este 0 937.7 -- 93
2020-11-09 01:00:00 7.6 8 Este 10 Este 0 938.1 -- 93
2020-11-09 00:00:00 8.1 4 Sudeste 8 Este 0 938.2 -- 92
2020-11-08 23:00:00 8.8 4 Sudeste 9 Sudeste 0 938.2 -- 92
2020-11-08 22:00:00 9.4 5 Sudeste 10 Este 0 938.2 -- 89
2020-11-08 21:00:00 10.3 8 Este 10 Este 0 937.9 -- 87
2020-11-08 20:00:00 11.2 7 Este 8 Este 0 937.9 -- 85
2020-11-08 19:00:00 12.7 4 Este 5 Este 0 937.9 -- 80
2020-11-08 18:00:00 14.7 2 Oeste 10 Sudoeste 0 937.7 -- 69
2020-11-08 17:00:00 16.2 6 Sudoeste 12 Oeste 0 937.7 -- 60
2020-11-08 16:00:00 17 5 Oeste 15 Oeste 0 937.7 -- 55
2020-11-08 15:00:00 16.1 8 Sur 16 Sudoeste 0 937.9 -- 58
2020-11-08 14:00:00 15.9 9 Sudoeste 17 Sudoeste 0 938.2 -- 61
2020-11-08 13:00:00 14.7 8 Sur 16 Sudoeste 0 939 -- 68
2020-11-08 12:00:00 13.1 8 Sudoeste 15 Sur 0 939.9 -- 74
2020-11-08 11:00:00 12.3 5 Sur 17 Sur 0 940 -- 81
2020-11-08 10:00:00 9.7 12 Sudeste 15 Sudeste 0 940 -- 90
2020-11-08 09:00:00 6.4 6 Sudeste 10 Sudeste 0 940.2 -- 95
2020-11-08 08:00:00 3.8 -- -- -- -- -- 939.7 -- 96
2020-11-08 07:00:00 4.4 8 Este -- -- 0 939.3 -- 96
2020-11-08 06:00:00 5.1 7 Este 14 Este 0 939.3 -- 96
2020-11-08 05:00:00 5.3 9 Este 14 Este 0 939.3 -- 96
2020-11-08 04:00:00 5.3 10 Este 13 Este 0 939.5 -- 95
2020-11-08 03:00:00 6 6 Este 8 Este 0 940 -- 95
2020-11-08 02:00:00 6.4 6 Este -- -- 0 940.2 -- 95
2020-11-08 01:00:00 6.8 3 Sudeste 10 Sur 0 940.5 -- 94
2020-11-08 00:00:00 7.5 4 Sudoeste 9 Sur 0 940.2 -- 94
2020-11-07 23:00:00 8.7 5 Nordeste 10 Nordeste 0 940 -- 90
2020-11-07 22:00:00 8 4 Sudeste 8 Este 0 939.7 -- 92
2020-11-07 21:00:00 9.6 6 Noroeste 10 Noroeste 0 939.5 -- 91
2020-11-07 20:00:00 10.4 7 Noroeste 9 Noroeste 0 939.1 -- 86
2020-11-07 19:00:00 11.5 4 Norte 21 Norte 0 938.7 -- 84
2020-11-07 18:00:00 13.1 13 Norte 33 Norte 0 937.8 -- 77
2020-11-07 17:00:00 14.7 25 Norte 37 Noroeste 0 937.4 -- 66
2020-11-07 16:00:00 15.4 26 Norte 43 Noroeste 0 937 -- 68
2020-11-07 15:00:00 14.1 25 Noroeste 39 Norte 0.2 936.5 -- 80
2020-11-07 14:00:00 12.7 23 Norte 35 Norte 0.4 936.3 -- 92
2020-11-07 13:00:00 13 24 Norte 37 Norte 1.2 935.9 -- 88
2020-11-07 12:00:00 12.4 22 Noroeste 32 Norte 0.2 936.1 -- 86
2020-11-07 11:00:00 12.1 14 Noroeste 19 Norte 0 935.6 -- 83
2020-11-07 10:00:00 11.7 9 Noroeste 24 Noroeste 0 934.6 -- 85
2020-11-07 09:00:00 11.2 12 Oeste 21 Oeste 0.2 933.7 -- 83
2020-11-07 08:00:00 11.2 6 Oeste 22 Noroeste 0 932.7 -- 82
2020-11-07 07:00:00 11.8 17 Noroeste 47 Noroeste 0 932.7 -- 81
2020-11-07 06:00:00 11.7 4 Noroeste 23 Sur 0 932.1 -- 87
2020-11-07 05:00:00 11.8 13 Sudoeste 22 Sudoeste 0 931.4 -- 88
2020-11-07 04:00:00 11.4 12 Noroeste 46 Noroeste 2.8 931.2 -- 94
2020-11-07 03:00:00 11.9 29 Noroeste -- -- 4.2 932.8 -- 96
2020-11-07 02:00:00 14.1 -- -- -- -- 1.6 932.9 -- 94
2020-11-07 01:00:00 14.1 12 Sur 23 Sur 1.8 932.4 -- 94
2020-11-07 00:00:00 15.1 14 Oeste 27 Sudoeste 0 933.6 -- 86
2020-11-06 23:00:00 15 11 Sur -- -- 0 933.1 -- 86
2020-11-06 22:00:00 15 -- -- -- -- 0 932.9 -- 86
2020-11-06 21:00:00 15.1 -- -- -- -- 0 932.3 -- 85
2020-11-06 20:00:00 15.1 -- -- -- -- 0 932.3 -- 85
2020-11-06 19:00:00 15.3 -- -- -- -- 0 931.7 -- 83
2020-11-06 18:00:00 15.7 -- -- -- -- 0 932.1 -- 82
2020-11-06 17:00:00 16.2 -- -- -- -- 0 931.7 -- 80
2020-11-06 16:00:00 17.3 -- -- -- -- 0 932.1 -- 76
2020-11-06 15:00:00 17.9 -- -- -- -- 0 932.7 -- 76
2020-11-06 14:00:00 18.4 -- -- -- -- 0 933 -- 70
2020-11-06 13:00:00 17.6 -- -- -- -- 0 934.1 -- 76
2020-11-06 12:00:00 17.2 -- -- -- -- 0 934.6 -- 78
2020-11-06 11:00:00 16 -- -- -- -- 0 934.8 -0.1 82
2020-11-06 10:00:00 15.3 -- -- -- -- 0 935.1 -- 85
2020-11-06 09:00:00 14.6 -- -- -- -- 0 935 -- 87
2020-11-06 08:00:00 14.2 -- -- -- -- 0 934.9 -- 88
2020-11-06 07:00:00 13.9 -- -- -- -- 0 934.8 -- 90
2020-11-06 06:00:00 13.5 -- -- -- -- 0 934.9 -- 92
2020-11-06 05:00:00 13.2 -- -- -- -- 0 935.1 -- 91
2020-11-06 04:00:00 13 -- -- -- -- 0 935.6 -- 92
2020-11-06 03:00:00 12.8 -- -- -- -- 0 935.6 -- 92
2020-11-06 02:00:00 12.7 22 Sur -- -- 0 935.5 -- 92
2020-11-06 01:00:00 12.4 16 Sur -- -- 0 935.7 -- 93
2020-11-06 00:00:00 12.2 -- -- -- -- 0 936.3 -- 93
2020-11-05 23:00:00 12 15 Sur 30 Sur 0 936.4 -- 94
2020-11-05 22:00:00 12.1 13 Sudoeste -- -- 0 935.9 -- 93
2020-11-05 21:00:00 12.3 -- -- -- -- 0 935.3 -- 93
2020-11-05 20:00:00 12.4 -- -- -- -- 0 935.4 -- 92
2020-11-05 19:00:00 12.6 -- -- -- -- 0.6 935.1 -- 94
2020-11-05 18:00:00 12.3 -- -- -- -- 15.2 934.7 -- 95
2020-11-05 17:00:00 12.1 19 Sudoeste 44 Sur 6.6 934.5 -- 95
2020-11-05 16:00:00 12.3 23 Sur 53 Sur 3.8 934.6 -- 92
2020-11-05 15:00:00 12.3 34 Sur 58 Sur 1.6 933.5 -- 92
2020-11-05 14:00:00 12.5 23 Sur -- -- -- 935 -- 90
2020-11-05 13:00:00 -- -- -- -- -- -- -- -- --
2020-11-05 12:00:00 11.8 17 Sur 53 Sur 0.6 936.7 -- 93
2020-11-05 11:00:00 11.5 31 Sur 61 Sur 0.2 936.8 -- 90
2020-11-05 10:00:00 10.7 33 Sur 65 Sur 0.4 936.7 -- 92
2020-11-05 09:00:00 11 28 Sur 64 Sur 0 936.4 -- 88
2020-11-05 08:00:00 10.7 35 Sur 65 Sur 0.4 935.2 -- 91
2020-11-05 07:00:00 11.2 28 Sur 59 Sur 0 935.1 -- 85
2020-11-05 06:00:00 11 36 Sur 66 Sur 0 934.3 -- 85
2020-11-05 05:00:00 11.1 35 Sur 61 Sur 0 934.1 -- 85
2020-11-05 04:00:00 10.9 41 Sur 64 Sur 0 934 -- 83
2020-11-05 03:00:00 10.4 41 Sur 66 Sur 0 934 -- 85
2020-11-05 02:00:00 10.5 38 Sur 66 Sur 0 934.1 -- 87
2020-11-05 01:00:00 10.5 31 Sur 64 Sur 0 934.7 -- 89
2020-11-05 00:00:00 10.3 34 Sur 63 Sur 0 934.6 -- 89
2020-11-04 23:00:00 10.1 27 Sur 55 Sur 0 934.6 -- 90
2020-11-04 22:00:00 10.1 25 Sur 51 Sur 0 934.2 -- 91
2020-11-04 21:00:00 10.1 24 Sur 42 Sudoeste 0 933.8 -- 89
2020-11-04 20:00:00 9.9 20 Sur 45 Sur 0 933.8 -- 90
2020-11-04 19:00:00 10 22 Sur 42 Sur 0 933.3 -- 89
2020-11-04 18:00:00 10.3 21 Sur 45 Sur 0 933.1 -- 87
2020-11-04 17:00:00 10.7 20 Sur 46 Sur 0.2 932.9 -- 89
2020-11-04 16:00:00 10.7 21 Sur 40 Sur 0 933.1 -- 87
2020-11-04 15:00:00 10.9 15 Sur 31 Sur 0.2 933.3 -- 90
2020-11-04 14:00:00 10.7 21 Sur 37 Sur 0 933.9 -- 88
2020-11-04 13:00:00 10.7 20 Sur 42 Sudoeste 0 934.6 -- 85
2020-11-04 12:00:00 10.8 21 Sudoeste 33 Sudoeste 0 935.4 -- 87
2020-11-04 11:00:00 10.6 13 Sudoeste 23 Sudoeste 0 935.5 0.2 91
2020-11-04 10:00:00 10.2 10 Sur 16 Sur 0 935.7 -- 93
2020-11-04 09:00:00 9.9 8 Sur 16 Sur 0.2 935.3 -- 94
2020-11-04 08:00:00 9.7 6 Sur 18 Sur 0.8 935.3 -- 95
2020-11-04 07:00:00 9.7 11 Sudoeste 24 Sudoeste 2.4 935 -- 96
2020-11-04 06:00:00 9.8 8 Sur 19 Sur 1.2 935.7 -- 96
2020-11-04 05:00:00 9.7 10 Sur 26 Sur 2 936 -- 96
2020-11-04 04:00:00 9.7 15 Sur 24 Sur 9.4 936.9 -- 97
2020-11-04 03:00:00 10 10 Sur 17 Sur 6.6 937.9 -- 95
2020-11-04 02:00:00 10.4 8 Sur 17 Sur 13.6 938.1 -- 94
2020-11-04 01:00:00 10.9 13 Oeste 45 Nordeste 8 939.6 -- 87
2020-11-04 00:00:00 11.8 10 Sur 23 Sudeste 0 939.1 -- 87
2020-11-03 23:00:00 12.2 12 Sur 20 Sur 0 939.9 -- 91
2020-11-03 22:00:00 12.1 11 Sudeste 30 Este 13.8 940.6 -- 93
2020-11-03 21:00:00 13.4 27 Nordeste 49 Nordeste 1.2 940.6 -- 85
2020-11-03 20:00:00 15.2 19 Sudeste 38 Sudeste 0 940.1 -- 69
2020-11-03 19:00:00 15.5 22 Este 42 Este 0 939.5 -- 66
2020-11-03 18:00:00 16.9 27 Este 52 Este 0 938.8 -- 59
2020-11-03 17:00:00 21.2 6 Oeste 12 Oeste 0 938.1 -- 39
2020-11-03 16:00:00 22.4 7 Sudoeste 17 Sudoeste 0 938 -- 35
2020-11-03 15:00:00 21.6 9 Sudoeste 20 Sudoeste 0 938.3 -- 37
2020-11-03 14:00:00 22.3 6 Oeste 17 Sudoeste 0 938.7 -- 37
2020-11-03 13:00:00 21.6 6 Sur 16 Sudoeste 0 939.4 -- 41
2020-11-03 12:00:00 19.9 8 Sudoeste 15 Sudoeste 0 939.8 -- 44
2020-11-03 11:00:00 17.5 5 Sur 11 Sudeste 0 940 -- 52
2020-11-03 10:00:00 15.4 4 Sudoeste 9 Sur 0 940.1 -- 57
2020-11-03 09:00:00 11.6 4 Sur 10 Este 0 939.8 -- 66
2020-11-03 08:00:00 7.3 8 Este 10 Nordeste 0 939.3 -- 83
2020-11-03 07:00:00 6.9 6 Este 8 Este 0 939.1 -- 80
2020-11-03 06:00:00 6.9 4 Norte 10 Este 0 938.9 -- 83
2020-11-03 05:00:00 6.9 8 Este 13 Este 0 938.8 -- 77
2020-11-03 04:00:00 7.6 7 Nordeste 10 Sudeste 0 938.9 -- 77
2020-11-03 03:00:00 8.4 4 Nordeste 11 Norte 0 939 -- 73
2020-11-03 02:00:00 9.1 8 Este 10 Este 0 938.8 -- 72
2020-11-03 01:00:00 9.3 6 Este 7 Este 0 939.1 -- 67
2020-11-03 00:00:00 10.4 5 Este 6 Este 0 939.3 -- 63
2020-11-02 23:00:00 10.5 2 Sudoeste 6 Sudeste 0 939.3 -- 63
2020-11-02 22:00:00 11.5 4 Sudeste 11 Sudeste 0 939.2 -- 58
2020-11-02 21:00:00 13 4 Sudeste 11 Nordeste 0 939 -- 53
2020-11-02 20:00:00 16 6 Nordeste 12 Nordeste 0 938.8 -- 43
2020-11-02 19:00:00 18.5 9 Nordeste 11 Nordeste 0 938.4 -- 38
2020-11-02 18:00:00 21.1 7 Norte -- -- 0 937.9 -- 32
2020-11-02 17:00:00 23.5 9 Norte 19 Nordeste 0 937.8 -- 29
2020-11-02 16:00:00 23.7 9 Norte 21 Nordeste 0 938 -- 28
2020-11-02 15:00:00 23.5 10 Norte 23 Norte 0 938.1 -- 31
2020-11-02 14:00:00 23.2 8 Norte 18 Norte 0 938.8 -- 32
2020-11-02 13:00:00 21.9 5 Norte 13 Noroeste 0 939.5 -- 32
2020-11-02 12:00:00 20.3 3 Sudoeste 10 Sudeste 0 940.2 -- 35
2020-11-02 11:00:00 17.1 4 Sudeste 11 Sudeste 0 940.4 -- 46
2020-11-02 10:00:00 13.2 8 Sudeste 13 Sudeste 0 940.4 -- 61
2020-11-02 09:00:00 9.2 6 Sudeste 13 Este 0 940.2 -- 73
2020-11-02 08:00:00 5.5 10 Este 14 Este 0 939.6 -- 86
2020-11-02 07:00:00 5.6 9 Este 15 Este 0 939.4 -- 85
2020-11-02 06:00:00 5.7 10 Este 16 Este 0 939.5 -- 84
2020-11-02 05:00:00 6.1 7 Este 14 Este 0 939.5 -- 84
2020-11-02 04:00:00 6.1 10 Este 14 Este 0 939.5 -- 82
2020-11-02 03:00:00 6.9 6 Este 17 Este 0 939.8 -- 81
2020-11-02 02:00:00 7.8 8 Sudeste 15 Este 0 940 -- 79
2020-11-02 01:00:00 8.3 8 Este 13 Este 0 940.1 -- 78
2020-11-02 00:00:00 9.4 8 Este 9 Este 0 940.4 -- 73
2020-11-01 23:00:00 11.1 5 Sur 16 Este 0 940.5 -- 70
2020-11-01 22:00:00 11.9 11 Este 16 Este 0 940.3 -- 66
2020-11-01 21:00:00 12.9 6 Este 8 Este 0 940 -- 61
2020-11-01 20:00:00 15 2 Norte 11 Norte 0 940.1 -- 54
2020-11-01 19:00:00 17.4 10 Norte 10 Norte 0 939.8 -- 46
2020-11-01 18:00:00 19.5 7 Norte 17 Norte 0 939.7 -- 42
2020-11-01 17:00:00 22.6 10 Norte 27 Norte 0 939.5 -- 34
2020-11-01 16:00:00 23.6 13 Norte 22 Norte 0 939.8 -- 33
2020-11-01 15:00:00 23.2 12 Norte 23 Norte 0 940.1 -- 36
2020-11-01 14:00:00 22.6 12 Norte 24 Norte 0 940.5 -- 39
2020-11-01 13:00:00 21.2 11 Norte 25 Norte 0 941.3 -- 46
2020-11-01 12:00:00 19.4 12 Norte 20 Nordeste 0 942.1 -- 52
2020-11-01 11:00:00 16.8 6 Norte 11 Noroeste 0 942.2 -- 57
2020-11-01 10:00:00 13.2 6 Este 12 Este 0 942.4 -- 64
2020-11-01 09:00:00 9.7 6 Sudeste 13 Este 0 941.9 -- 75
2020-11-01 08:00:00 5.7 10 Este 15 Este 0 941.4 -- 87
2020-11-01 07:00:00 5.6 9 Este 13 Este 0 941.1 -- 88
2020-11-01 06:00:00 5.7 8 Este 10 Este 0 941.2 -- 85
2020-11-01 05:00:00 6.6 6 Este 9 Este 0 941.1 -- 84
2020-11-01 04:00:00 6.8 6 Este 10 Este 0 941.5 -- 81
2020-11-01 03:00:00 8.1 8 Este 10 Este 0 941.8 -- 80
2020-11-01 02:00:00 8.2 6 Este 7 Este 0 941.7 -- 77
2020-11-01 01:00:00 9.2 3 Este 13 Este 0 941.7 -- 73
2020-11-01 00:00:00 10 10 Este 14 Este 0 941.6 -- 70
2020-10-31 23:00:00 11.2 6 Sudeste 14 Este 0 941.7 -- 66
2020-10-31 22:00:00 12.4 9 Este 13 Sudeste 0 941.5 -- 61
2020-10-31 21:00:00 14.1 9 Sudeste 18 Nordeste 0 941.1 -- 55
2020-10-31 20:00:00 17.8 16 Nordeste 22 Nordeste 0 941.1 -- 45
2020-10-31 19:00:00 17.6 11 Nordeste 13 Nordeste 0 940.4 -- 44
2020-10-31 18:00:00 20.7 10 Norte 19 Norte 0 940.2 -- 36
2020-10-31 17:00:00 23.5 15 Norte 24 Norte 0 940 -- 31
2020-10-31 16:00:00 24.2 14 Norte 23 Nordeste 0 940 -- 29
2020-10-31 15:00:00 24.1 10 Norte 23 Nordeste 0 940.1 -- 31
2020-10-31 14:00:00 23.3 11 Norte 21 Norte 0 941 -- 32
2020-10-31 13:00:00 22.3 6 Noroeste 14 Oeste 0 941.5 -- 36
2020-10-31 12:00:00 20 4 Sudeste 9 Sudeste 0 942.2 -- 39
2020-10-31 11:00:00 16.7 5 Este 9 Este 0 942.5 -- 49
2020-10-31 10:00:00 13 5 Sudeste 10 Sudeste 0 942.5 -- 61
2020-10-31 09:00:00 9.2 6 Sudeste 12 Este 0 942.4 -- 73
2020-10-31 08:00:00 5.4 4 Este 13 Este 0 942 -- 85
2020-10-31 07:00:00 5.6 9 Este 13 Este 0 941.4 -- 84
2020-10-31 06:00:00 6 7 Sudeste 14 Este 0 941.4 -- 82
2020-10-31 05:00:00 6.2 10 Este 14 Este 0 941.1 -- 81
2020-10-31 04:00:00 7.2 9 Este 19 Este 0 941 -- 79
2020-10-31 03:00:00 7.3 12 Este 18 Este 0 941.3 -- 78
2020-10-31 02:00:00 7.9 7 Este 14 Este 0 941.4 -- 75
2020-10-31 01:00:00 8.5 8 Este 14 Este 0 941.6 -- 72
2020-10-31 00:00:00 9.2 9 Este 17 Este 0 941.6 -- 70
2020-10-30 23:00:00 9.3 6 Este 12 Sudeste 0 941.8 -- 70
2020-10-30 22:00:00 10.1 7 Este 10 Este 0 941.8 -- 68
2020-10-30 21:00:00 11.9 6 Este 10 Este 0 941.5 -- 63
2020-10-30 20:00:00 13.5 8 Este 11 Este 0 941.3 -- 59
2020-10-30 19:00:00 17.2 0 Calma 3 Norte 0 941.1 -- 46
2020-10-30 18:00:00 21.6 0 Calma 8 Noroeste 0 940.8 -- 36
2020-10-30 17:00:00 23.6 4 Noroeste 8 Este 0 940.8 -- 31
2020-10-30 16:00:00 22.9 6 Sudeste 10 Sur 0 940.8 -- 32
2020-10-30 15:00:00 22.4 4 Sudoeste 11 Oeste 0 941.1 -- 34
2020-10-30 14:00:00 21.7 4 Sudeste 8 Sur 0 941.5 -- 40
2020-10-30 13:00:00 20.5 4 Sur 10 Oeste 0 942.3 -- 45
2020-10-30 12:00:00 18.3 4 Sur 10 Sur 0 942.9 -- 49
2020-10-30 11:00:00 15.3 6 Sudeste 14 Sudeste 0 943 -- 58
2020-10-30 10:00:00 12.2 9 Sudeste 19 Sudeste 0 943.2 -- 66
2020-10-30 09:00:00 8.2 10 Sur 14 Sudeste 0 942.9 -- 81
2020-10-30 08:00:00 4.9 12 Sudeste 14 Sudeste 0 942.5 -- 93
2020-10-30 07:00:00 4.5 9 Este 17 Este 0 942.2 -- 92
2020-10-30 06:00:00 4.6 9 Este 17 Este 0 942.3 -- 92
2020-10-30 05:00:00 4.9 9 Este 14 Este 0 942.5 -- 91
2020-10-30 04:00:00 5.3 10 Este 15 Este 0 942.4 -- 91
2020-10-30 03:00:00 5.7 9 Sudeste 14 Este 0 942.6 -- 89
2020-10-30 02:00:00 6.5 8 Este 16 Este 0 942.6 -- 87
2020-10-30 01:00:00 6.7 10 Este 14 Este 0 942.8 -- 86
2020-10-30 00:00:00 7.2 9 Este 12 Este 0 942.9 0.3 85
2020-10-29 23:00:00 7.6 8 Este 12 Este 0 942.9 -- 83
2020-10-29 22:00:00 8.2 6 Este 10 Este 0 942.8 -- 80
2020-10-29 21:00:00 9.4 6 Sudeste 10 Este 0 942.6 -- 78
2020-10-29 20:00:00 11.1 7 Este 11 Sudeste 0 942.6 -- 70
2020-10-29 19:00:00 13.7 6 Nordeste 9 Nordeste 0 942.3 -- 63
2020-10-29 18:00:00 17.2 6 Nordeste 15 Nordeste 0 941.8 -- 53
2020-10-29 17:00:00 18.7 8 Nordeste 16 Norte 0 941.7 -- 50
2020-10-29 16:00:00 18.5 9 Norte 17 Norte 0 941.6 -- 55
2020-10-29 15:00:00 18.3 9 Norte 20 Norte 0 941.7 -- 55
2020-10-29 14:00:00 18.2 8 Oeste 18 Oeste 0 942.1 -- 58
2020-10-29 13:00:00 17 6 Oeste 19 Noroeste 0 942.8 -- 61
2020-10-29 12:00:00 15.4 4 Nordeste 14 Este 0 943.6 -- 67
2020-10-29 11:00:00 12.8 4 Este 14 Este 0 943.9 -- 80
2020-10-29 10:00:00 8.7 8 Este 18 Este 0 943.8 -- 97
2020-10-29 09:00:00 6.3 6 Este 17 Este 0 943.2 -- 98
2020-10-29 08:00:00 4.2 9 Este 15 Este 0 942.6 -- 97
2020-10-29 07:00:00 4.1 6 Este 9 Sudeste 0 942 -- 95
2020-10-29 06:00:00 5 4 Sudeste 6 Este 0 941.8 -- 93
2020-10-29 05:00:00 6.4 3 Sur 5 Sur 0 941.5 -- 94
2020-10-29 04:00:00 7.1 2 Sudoeste 5 Sudoeste 0 941.4 -- 94
2020-10-29 03:00:00 6.7 4 Sudeste 8 Este 0 941.6 -- 94
2020-10-29 02:00:00 6.2 4 Este 9 Norte 0 941.1 -- 91
2020-10-29 01:00:00 7.6 6 Norte 11 Este 0 940.9 -- 92
2020-10-29 00:00:00 9 10 Este 14 Este 0 941 -- 91
2020-10-28 23:00:00 9.2 11 Este 16 Sudeste 0 941 -- 88
2020-10-28 22:00:00 9.7 10 Este 18 Este 0 940.8 -- 86
2020-10-28 21:00:00 11.3 12 Este 22 Este 0 940.5 -- 81
2020-10-28 20:00:00 12.7 16 Nordeste 21 Nordeste 0 940 -- 75
2020-10-28 19:00:00 13.8 7 Nordeste 11 Nordeste 0 939.4 -- 68
2020-10-28 18:00:00 16 9 Norte 22 Norte 0 938.5 -- 59
2020-10-28 17:00:00 17.8 15 Norte 23 Norte 0 938.4 -- 55
2020-10-28 16:00:00 18.2 14 Norte 26 Norte 0 938.3 -- 55
2020-10-28 15:00:00 17 17 Norte 28 Norte 0 938.7 -- 60
2020-10-28 14:00:00 15.4 13 Norte 23 Norte 0 938.8 -- 65
2020-10-28 13:00:00 13.7 8 Norte 19 Norte 0 939.2 -- 72
2020-10-28 12:00:00 11.8 10 Norte 17 Norte 0 939.7 -- 78
2020-10-28 11:00:00 10.3 7 Norte 12 Norte 0 939.5 -- 84
2020-10-28 10:00:00 9 7 Norte 11 Norte 0 939.5 -- 89
2020-10-28 09:00:00 8 6 Norte 11 Norte 0 938.8 -- 92
2020-10-28 08:00:00 7.1 7 Norte 11 Norte 0 938 -- 92
2020-10-28 07:00:00 6.8 6 Norte 19 Norte 0 937.5 -- 92
2020-10-28 06:00:00 6.2 14 Nordeste 18 Nordeste 0 937.1 -- 94
2020-10-28 05:00:00 5.7 12 Norte 18 Nordeste 0 936.7 -- 93
2020-10-28 04:00:00 6.9 13 Norte 18 Norte 0 936.6 -- 90
2020-10-28 03:00:00 5.8 10 Norte 16 Norte 0 936.9 -- 94
2020-10-28 02:00:00 5.3 11 Norte 14 Norte 0 936.8 -- 92
2020-10-28 01:00:00 5.7 8 Norte 11 Norte 0 937 -- 90
2020-10-28 00:00:00 6.6 6 Noroeste 14 Norte 0 937.1 -- 84
2020-10-27 23:00:00 7.2 7 Noroeste 21 Nordeste 0 937.1 -- 82
2020-10-27 22:00:00 7 10 Norte 13 Norte 0 936.9 -- 78
2020-10-27 21:00:00 8.5 8 Norte 15 Nordeste 0 936.5 -- 71
2020-10-27 20:00:00 9.6 11 Norte 18 Nordeste 0 936.2 -- 67
2020-10-27 19:00:00 10.5 8 Norte 19 Norte 0 935.8 -- 62
2020-10-27 18:00:00 13 16 Norte 31 Norte 0 935.3 -- 52
2020-10-27 17:00:00 14.6 21 Norte 35 Norte 0 934.9 -- 46
2020-10-27 16:00:00 14.9 22 Norte 35 Norte 0 935 -- 45
2020-10-27 15:00:00 14.2 21 Norte 35 Norte 0 935.3 -- 49
2020-10-27 14:00:00 13.4 26 Norte 37 Norte 0 935.8 -- 49
2020-10-27 13:00:00 11.8 19 Norte 35 Norte 0 936.3 -- 60
2020-10-27 12:00:00 10.6 18 Norte 28 Norte 0 936.9 -- 63
2020-10-27 11:00:00 8.8 17 Norte 27 Norte 0 937.1 -- 73
2020-10-27 10:00:00 6.5 17 Norte 25 Norte 0 937 -- 86
2020-10-27 09:00:00 4.5 11 Norte 15 Norte 0 936.6 -- 93
2020-10-27 08:00:00 2 10 Norte 16 Norte 0 936.2 -- 96
2020-10-27 07:00:00 2 12 Norte 16 Norte 0 935.9 -- 95
2020-10-27 06:00:00 3.3 13 Nordeste 20 Norte 0 935.8 -- 94
2020-10-27 05:00:00 2.5 12 Norte 18 Norte 0 935.7 -- 92
2020-10-27 04:00:00 2.5 14 Norte 16 Norte 0 935.8 -- 93
2020-10-27 03:00:00 2.2 14 Norte 18 Norte 0 936.3 -- 92
2020-10-27 02:00:00 2.6 13 Norte 16 Norte 0 936.4 -- 91
2020-10-27 01:00:00 3.4 14 Norte 17 Norte 0 936.8 -- 90
2020-10-27 00:00:00 4 8 Norte 16 Norte 0 937.1 -- 86